createdAt,value
2023-12-13T00:02:31.534Z,10.32
2023-12-13T00:07:33.367Z,10.38
2023-12-13T00:12:36.674Z,9.85
2023-12-13T00:17:39.342Z,8.82
2023-12-13T00:22:42.221Z,8.95
2023-12-13T00:27:44.425Z,9.55
2023-12-13T00:32:46.232Z,8.77
2023-12-13T00:37:48.181Z,7.97
2023-12-13T00:42:50.549Z,7.75
2023-12-13T00:47:53.044Z,6.55
2023-12-13T00:52:55.599Z,5.57
2023-12-13T00:57:58.506Z,5.22
2023-12-13T01:03:02.176Z,4.82
2023-12-13T01:08:04.438Z,3.70
2023-12-13T01:13:06.414Z,3.03
2023-12-13T01:18:08.740Z,3.00
2023-12-13T01:23:10.639Z,2.50
2023-12-13T01:28:12.307Z,2.72
2023-12-13T01:33:14.646Z,2.78
2023-12-13T01:38:17.148Z,2.33
2023-12-13T01:43:25.680Z,1.50
2023-12-13T01:48:28.553Z,1.40
2023-12-13T01:53:31.647Z,1.20
2023-12-13T01:58:38.213Z,1.30
2023-12-13T02:03:41.284Z,1.10
2023-12-13T02:08:43.325Z,0.80
2023-12-13T02:13:45.656Z,0.77
2023-12-13T02:18:48.066Z,0.70
2023-12-13T02:23:52.560Z,0.70
2023-12-13T02:28:56.022Z,0.70
2023-12-13T02:33:59.050Z,0.60
2023-12-13T02:39:04.483Z,0.50
2023-12-13T02:44:06.758Z,0.30
2023-12-13T02:49:08.586Z,0.50
2023-12-13T02:54:10.238Z,0.45
2023-12-13T02:59:12.582Z,0.60
2023-12-13T03:04:14.449Z,0.30
2023-12-13T03:09:16.232Z,0.40
2023-12-13T03:14:18.751Z,0.30
2023-12-13T03:19:21.180Z,0.30
2023-12-13T03:24:23.304Z,0.65
2023-12-13T03:29:26.099Z,0.30
2023-12-13T03:34:28.222Z,0.20
2023-12-13T03:39:29.889Z,0.43
2023-12-13T03:44:32.113Z,0.50
2023-12-13T03:49:34.293Z,0.40
2023-12-13T03:54:36.571Z,0.30
2023-12-13T03:59:39.181Z,0.40
2023-12-13T04:04:41.047Z,0.40
2023-12-13T04:09:42.859Z,0.32
2023-12-13T04:14:44.536Z,0.43
2023-12-13T04:19:46.490Z,0.47
2023-12-13T04:24:48.226Z,0.52
2023-12-13T04:29:50.052Z,0.55
2023-12-13T04:34:51.950Z,0.65
2023-12-13T04:39:53.631Z,0.40
2023-12-13T04:44:56.309Z,0.40
2023-12-13T04:49:58.513Z,0.30
2023-12-13T04:55:00.879Z,0.30
2023-12-13T05:00:02.487Z,0.60
2023-12-13T05:05:05.304Z,0.35
2023-12-13T05:10:08.395Z,0.40
2023-12-13T05:15:10.574Z,0.40
2023-12-13T05:20:12.596Z,0.40
2023-12-13T05:25:14.331Z,0.50
2023-12-13T05:30:19.347Z,0.50
2023-12-13T05:35:21.109Z,0.70
2023-12-13T05:40:23.463Z,0.30
2023-12-13T05:45:26.148Z,0.90
2023-12-13T05:50:28.898Z,0.60
2023-12-13T05:55:30.854Z,0.70
2023-12-13T06:00:33.594Z,0.60
2023-12-13T06:05:35.397Z,0.30
2023-12-13T06:10:37.203Z,0.70
2023-12-13T06:15:39.795Z,0.40
2023-12-13T06:20:41.762Z,0.50
2023-12-13T06:25:43.444Z,0.50
2023-12-13T06:30:45.043Z,0.40
2023-12-13T06:35:46.638Z,0.65
2023-12-13T06:40:48.269Z,0.40
2023-12-13T06:45:49.965Z,0.70
2023-12-13T06:50:51.607Z,0.80
2023-12-13T06:55:53.450Z,0.88
2023-12-13T07:00:55.338Z,0.90
2023-12-13T07:05:57.218Z,1.17
2023-12-13T07:10:59.697Z,0.80
2023-12-13T07:16:01.325Z,3.00
2023-12-13T07:21:02.974Z,7.63
2023-12-13T07:26:05.542Z,4.72
2023-12-13T07:36:12.322Z,2.80
2023-12-13T07:41:14.811Z,2.65
2023-12-13T07:46:17.087Z,4.55
2023-12-13T07:51:19.006Z,5.20
2023-12-13T07:56:24.880Z,2.60
2023-12-13T08:01:29.899Z,1.90
2023-12-13T08:06:31.510Z,2.17
2023-12-13T08:11:33.071Z,2.90
2023-12-13T08:16:34.674Z,3.97
2023-12-13T08:21:42.060Z,3.88
2023-12-13T08:26:43.716Z,2.50
2023-12-13T08:31:46.252Z,3.70
2023-12-13T08:36:48.242Z,3.25
2023-12-13T08:41:49.845Z,3.55
2023-12-13T08:46:51.506Z,2.50
2023-12-13T08:51:53.172Z,2.50
2023-12-13T08:56:54.706Z,2.65
2023-12-13T09:01:56.304Z,2.40
2023-12-13T09:06:58.031Z,26.45
2023-12-13T09:12:00.159Z,6.40
2023-12-13T09:17:09.514Z,2.42
2023-12-13T09:22:11.638Z,2.47
2023-12-13T09:27:13.440Z,2.60
2023-12-13T09:32:15.679Z,2.25
2023-12-13T09:37:17.811Z,1.90
2023-12-13T09:42:19.743Z,1.92
2023-12-13T09:47:24.906Z,1.90
2023-12-13T09:52:28.663Z,1.88
2023-12-13T09:57:30.516Z,1.52
2023-12-13T10:02:32.670Z,1.48
2023-12-13T10:07:46.190Z,1.20
2023-12-13T10:12:52.509Z,1.35
2023-12-13T10:17:55.601Z,1.65
2023-12-13T10:22:58.364Z,1.52
2023-12-13T10:28:00.661Z,1.23
2023-12-13T10:33:02.754Z,1.10
2023-12-13T10:38:06.982Z,1.60
2023-12-13T10:43:12.689Z,1.35
2023-12-13T10:48:17.485Z,1.50
2023-12-13T10:53:21.516Z,1.90
2023-12-13T10:58:27.578Z,1.00
2023-12-13T11:03:50.843Z,1.90
2023-12-13T11:08:56.061Z,1.45
2023-12-13T11:14:00.603Z,0.77
2023-12-13T11:19:04.717Z,0.90
2023-12-13T11:24:11.790Z,1.30
2023-12-13T11:29:23.398Z,3.05
2023-12-13T11:34:49.500Z,33.15
2023-12-13T11:39:52.711Z,2.90
2023-12-13T11:44:57.554Z,1.20
2023-12-13T11:50:01.717Z,1.10
2023-12-13T11:55:04.441Z,1.10
2023-12-13T12:00:07.957Z,3.55
2023-12-13T12:05:15.119Z,2.70
2023-12-13T12:10:20.915Z,3.67
2023-12-13T12:15:23.441Z,1.80
2023-12-13T12:20:25.915Z,2.60
2023-12-13T12:25:31.131Z,1.42
2023-12-13T12:30:33.276Z,1.40
2023-12-13T12:35:35.287Z,1.13
2023-12-13T12:40:37.235Z,0.80
2023-12-13T12:45:39.373Z,0.63
2023-12-13T12:50:42.449Z,0.30
2023-12-13T12:55:45.171Z,0.65
2023-12-13T13:00:47.593Z,1.00
2023-12-13T13:05:49.505Z,0.77
2023-12-13T13:10:51.583Z,0.80
2023-12-13T13:15:53.260Z,0.55
2023-12-13T13:20:56.388Z,0.60
2023-12-13T13:25:58.643Z,16.10
2023-12-13T13:31:00.610Z,9.20
2023-12-13T13:36:04.302Z,5.75
2023-12-13T13:41:08.737Z,3.55
2023-12-13T13:46:18.120Z,1.08
2023-12-13T13:51:19.967Z,0.80
2023-12-13T13:56:27.172Z,0.98
2023-12-13T14:01:35.951Z,2.13
2023-12-13T14:06:38.503Z,10.60
2023-12-13T14:11:40.099Z,5.80
2023-12-13T14:16:42.732Z,3.92
2023-12-13T14:21:45.292Z,1.95
2023-12-13T14:26:47.637Z,1.60
2023-12-13T14:31:49.975Z,1.70
2023-12-13T14:36:51.816Z,1.52
2023-12-13T14:41:54.434Z,2.38
2023-12-13T14:46:57.195Z,9.13
2023-12-13T14:52:00.234Z,9.65
2023-12-13T14:57:02.716Z,2.33
2023-12-13T15:02:05.008Z,1.92
2023-12-13T15:07:08.631Z,1.77
2023-12-13T15:12:11.611Z,1.33
2023-12-13T15:17:13.386Z,3.17
2023-12-13T15:22:15.506Z,3.22
2023-12-13T15:27:18.102Z,3.25
2023-12-13T15:32:20.357Z,5.38
2023-12-13T15:37:22.105Z,4.45
2023-12-13T15:42:24.999Z,5.25
2023-12-13T15:47:26.640Z,6.57
2023-12-13T15:52:28.384Z,7.95
2023-12-13T15:57:31.880Z,7.75
2023-12-13T16:02:34.469Z,7.85
2023-12-13T16:07:37.255Z,4.90
2023-12-13T16:12:40.155Z,6.55
2023-12-13T16:17:43.414Z,3.80
2023-12-13T16:22:45.533Z,3.33
2023-12-13T16:27:48.553Z,3.95
2023-12-13T16:32:52.960Z,5.57
2023-12-13T16:37:54.755Z,4.20
2023-12-13T16:43:00.233Z,3.83
2023-12-13T16:48:02.483Z,4.03
2023-12-13T16:53:05.826Z,5.00
2023-12-13T16:58:08.869Z,4.60
2023-12-13T17:03:11.070Z,4.70
2023-12-13T17:08:13.813Z,9.55
2023-12-13T17:13:16.783Z,11.70
2023-12-13T17:18:19.466Z,10.07
2023-12-13T17:23:23.154Z,5.80
2023-12-13T17:28:25.324Z,5.75
2023-12-13T17:33:27.785Z,10.60
2023-12-13T17:38:30.669Z,13.35
2023-12-13T17:43:33.844Z,17.75
2023-12-13T17:48:36.720Z,14.85
2023-12-13T17:53:41.397Z,12.60
2023-12-13T17:58:45.019Z,14.05
2023-12-13T18:03:47.305Z,14.07
2023-12-13T18:08:50.111Z,10.07
2023-12-13T18:13:53.163Z,25.65
2023-12-13T18:18:55.345Z,10.88
2023-12-13T18:23:57.609Z,11.65
2023-12-13T18:29:02.746Z,12.35
2023-12-13T18:34:06.112Z,12.88
2023-12-13T18:39:22.985Z,11.35
2023-12-13T18:44:24.889Z,12.27
2023-12-13T18:49:30.952Z,11.85
2023-12-13T18:54:33.018Z,11.82
2023-12-13T18:59:35.292Z,11.02
2023-12-13T19:04:37.128Z,8.40
2023-12-13T19:09:39.220Z,8.38
2023-12-13T19:14:40.840Z,8.35
2023-12-13T19:19:42.620Z,7.80
2023-12-13T19:24:45.060Z,8.93
2023-12-13T19:29:47.139Z,8.13
2023-12-13T19:34:49.940Z,8.25
2023-12-13T19:39:52.801Z,8.23
2023-12-13T19:44:54.829Z,10.75
2023-12-13T19:49:56.626Z,12.23
2023-12-13T19:54:58.792Z,9.85
2023-12-13T20:00:00.837Z,8.00
2023-12-13T20:05:03.111Z,8.73
2023-12-13T20:10:05.098Z,8.57
2023-12-13T20:15:10.110Z,10.50
2023-12-13T20:20:12.786Z,9.38
2023-12-13T20:25:15.531Z,10.82
2023-12-13T20:30:18.801Z,11.35
2023-12-13T20:35:20.565Z,9.20
2023-12-13T20:40:22.402Z,12.68
2023-12-13T20:45:24.141Z,11.15
2023-12-13T20:50:26.024Z,10.38
2023-12-13T20:55:27.868Z,11.60
2023-12-13T21:00:30.238Z,11.52
2023-12-13T21:05:32.093Z,11.77
2023-12-13T21:10:37.620Z,18.27
2023-12-13T21:15:39.561Z,13.15
2023-12-13T21:20:41.295Z,14.05
2023-12-13T21:25:43.060Z,15.77
2023-12-13T21:30:45.205Z,13.93
2023-12-13T21:35:50.018Z,9.68
2023-12-13T21:40:52.371Z,7.35
2023-12-13T21:45:54.205Z,6.93
2023-12-13T21:50:56.444Z,6.88
2023-12-13T21:55:58.606Z,6.05
2023-12-13T22:01:00.401Z,5.20
2023-12-13T22:06:04.133Z,4.68
2023-12-13T22:11:08.982Z,4.00
2023-12-13T22:16:19.092Z,3.78
2023-12-13T22:21:20.716Z,3.33
2023-12-13T22:26:22.733Z,2.67
2023-12-13T22:31:24.347Z,2.30
2023-12-13T22:36:27.046Z,2.67
2023-12-13T22:41:29.522Z,2.30
2023-12-13T22:46:31.246Z,2.10
2023-12-13T22:51:33.002Z,1.98
2023-12-13T22:56:34.906Z,2.25
2023-12-13T23:01:37.637Z,2.13
2023-12-13T23:06:40.306Z,2.42
2023-12-13T23:11:44.192Z,2.40
2023-12-13T23:16:45.975Z,2.42
2023-12-13T23:21:47.970Z,2.90
2023-12-13T23:26:50.718Z,2.40
2023-12-13T23:31:52.735Z,2.65
2023-12-13T23:36:54.642Z,2.58
2023-12-13T23:41:56.565Z,2.40
2023-12-13T23:47:00.046Z,2.88
2023-12-13T23:52:02.782Z,2.90
2023-12-13T23:57:04.901Z,2.85
